createdAt,value
2024-03-28T00:01:59.255Z,97132.39
2024-03-28T00:04:32.966Z,97131.66
2024-03-28T00:07:06.355Z,97128.05
2024-03-28T00:09:39.524Z,97131.14
2024-03-28T00:12:13.342Z,97129.77
2024-03-28T00:14:46.100Z,97130.60
2024-03-28T00:17:18.995Z,97132.52
2024-03-28T00:19:51.917Z,97136.27
2024-03-28T00:22:25.344Z,97137.95
2024-03-28T00:24:58.131Z,97141.03
2024-03-28T00:27:30.877Z,97140.55
2024-03-28T00:30:04.278Z,97141.52
2024-03-28T00:32:37.042Z,97145.08
2024-03-28T00:35:11.856Z,97142.80
2024-03-28T00:37:44.655Z,97146.16
2024-03-28T00:40:17.938Z,97143.06
2024-03-28T00:42:51.037Z,97142.41
2024-03-28T00:45:23.842Z,97141.75
2024-03-28T00:47:56.720Z,97143.79
2024-03-28T00:50:29.532Z,97143.13
2024-03-28T00:53:02.346Z,97139.08
2024-03-28T00:55:37.037Z,97134.68
2024-03-28T00:58:09.984Z,97138.42
2024-03-28T01:00:43.253Z,97138.87
2024-03-28T01:03:16.667Z,97144.01
2024-03-28T01:05:59.266Z,97148.66
2024-03-28T01:08:32.008Z,97143.10
2024-03-28T01:11:04.958Z,97145.77
2024-03-28T01:13:38.906Z,97145.69
2024-03-28T01:16:12.574Z,97149.44
2024-03-28T01:18:45.592Z,97146.86
2024-03-28T01:21:18.623Z,97146.96
2024-03-28T01:23:51.522Z,97152.00
2024-03-28T01:26:24.900Z,97151.27
2024-03-28T01:28:58.218Z,97153.45
2024-03-28T01:31:30.975Z,97154.45
2024-03-28T01:34:03.943Z,97158.05
2024-03-28T01:36:36.791Z,97163.12
2024-03-28T01:39:09.572Z,97160.88
2024-03-28T01:41:42.653Z,97158.21
2024-03-28T01:44:15.986Z,97157.48
2024-03-28T01:46:56.352Z,97154.56
2024-03-28T01:49:42.744Z,97155.75
2024-03-28T01:52:16.567Z,97156.52
2024-03-28T01:54:49.839Z,97158.89
2024-03-28T01:57:24.355Z,97159.00
2024-03-28T01:59:57.525Z,97161.47
2024-03-28T02:02:31.484Z,97164.27
2024-03-28T02:05:04.190Z,97164.55
2024-03-28T02:07:37.413Z,97166.09
2024-03-28T02:10:12.476Z,97170.33
2024-03-28T02:12:45.569Z,97171.56
2024-03-28T02:15:18.437Z,97175.38
2024-03-28T02:17:52.071Z,97176.62
2024-03-28T02:20:24.994Z,97182.45
2024-03-28T02:22:57.787Z,97183.46
2024-03-28T02:25:30.771Z,97185.29
2024-03-28T02:28:04.332Z,97187.50
2024-03-28T02:30:37.562Z,97192.41
2024-03-28T02:33:10.326Z,97193.45
2024-03-28T02:35:44.158Z,97197.30
2024-03-28T02:38:16.783Z,97200.48
2024-03-28T02:40:52.270Z,97205.57
2024-03-28T02:43:25.596Z,97203.10
2024-03-28T02:45:58.542Z,97203.16
2024-03-28T02:48:31.439Z,97202.48
2024-03-28T02:51:04.207Z,97208.96
2024-03-28T02:53:37.177Z,97204.65
2024-03-28T02:56:10.913Z,97207.17
2024-03-28T02:58:43.792Z,97209.97
2024-03-28T03:01:16.577Z,97212.54
2024-03-28T03:03:49.280Z,97221.15
2024-03-28T03:06:22.089Z,97223.73
2024-03-28T03:08:55.086Z,97222.04
2024-03-28T03:11:27.985Z,97221.84
2024-03-28T03:14:00.773Z,97226.80
2024-03-28T03:16:33.566Z,97232.23
2024-03-28T03:19:06.370Z,97233.81
2024-03-28T03:21:39.230Z,97236.58
2024-03-28T03:24:14.571Z,97242.65
2024-03-28T03:26:51.840Z,97246.70
2024-03-28T03:29:42.501Z,97249.36
2024-03-28T03:32:29.436Z,97253.88
2024-03-28T03:35:02.082Z,97255.14
2024-03-28T03:37:35.492Z,97254.85
2024-03-28T03:40:11.367Z,97256.96
2024-03-28T03:42:44.575Z,97256.64
2024-03-28T03:45:17.418Z,97258.54
2024-03-28T03:47:50.292Z,97258.95
2024-03-28T03:50:23.095Z,97262.00
2024-03-28T03:52:56.273Z,97260.85
2024-03-28T03:55:29.205Z,97258.10
2024-03-28T03:58:02.439Z,97255.88
2024-03-28T04:00:35.549Z,97255.39
2024-03-28T04:03:08.698Z,97255.55
2024-03-28T04:05:41.676Z,97255.42
2024-03-28T04:08:14.845Z,97254.02
2024-03-28T04:10:47.835Z,97253.67
2024-03-28T04:13:20.777Z,97249.48
2024-03-28T04:15:54.027Z,97256.44
2024-03-28T04:18:28.071Z,97259.15
2024-03-28T04:21:01.463Z,97257.45
2024-03-28T04:23:34.534Z,97258.56
2024-03-28T04:26:07.457Z,97248.52
2024-03-28T04:28:40.673Z,97246.15
2024-03-28T04:31:13.506Z,97241.63
2024-03-28T04:33:46.353Z,97243.04
2024-03-28T04:36:20.608Z,97244.48
2024-03-28T04:38:54.275Z,97248.19
2024-03-28T04:41:29.881Z,97246.70
2024-03-28T04:44:02.614Z,97244.45
2024-03-28T04:46:35.468Z,97245.56
2024-03-28T04:49:08.262Z,97243.88
2024-03-28T04:51:41.039Z,97243.67
2024-03-28T04:54:13.738Z,97245.75
2024-03-28T04:56:46.855Z,97242.44
2024-03-28T04:59:19.765Z,97243.79
2024-03-28T05:01:53.536Z,97241.41
2024-03-28T05:04:26.510Z,97241.05
2024-03-28T05:06:59.803Z,97240.59
2024-03-28T05:09:33.186Z,97239.39
2024-03-28T05:12:06.587Z,97240.74
2024-03-28T05:14:39.695Z,97236.23
2024-03-28T05:17:13.143Z,97241.66
2024-03-28T05:19:46.185Z,97241.05
2024-03-28T05:22:19.165Z,97246.31
2024-03-28T05:24:52.029Z,97241.92
2024-03-28T05:27:27.502Z,97243.69
2024-03-28T05:30:01.764Z,97243.61
2024-03-28T05:32:34.926Z,97244.58
2024-03-28T05:35:10.082Z,97241.41
2024-03-28T05:37:43.002Z,97242.73
2024-03-28T05:40:16.123Z,97237.13
2024-03-28T05:42:49.293Z,97240.77
2024-03-28T05:45:22.307Z,97239.86
2024-03-28T05:47:55.409Z,97234.65
2024-03-28T05:50:29.016Z,97235.30
2024-03-28T05:53:02.258Z,97234.58
2024-03-28T05:55:36.820Z,97232.27
2024-03-28T05:58:09.948Z,97233.42
2024-03-28T06:00:43.125Z,97229.48
2024-03-28T06:03:16.492Z,97229.55
2024-03-28T06:05:49.583Z,97230.52
2024-03-28T06:08:22.711Z,97228.72
2024-03-28T06:10:55.968Z,97226.96
2024-03-28T06:13:32.670Z,97225.69
2024-03-28T06:16:06.898Z,97222.30
2024-03-28T06:18:40.338Z,97226.14
2024-03-28T06:21:11.285Z,97225.88
2024-03-28T06:23:44.418Z,97225.31
2024-03-28T06:26:15.681Z,97225.79
2024-03-28T06:28:49.498Z,97215.84
2024-03-28T06:31:23.627Z,97215.53
2024-03-28T06:33:57.376Z,97213.04
2024-03-28T06:36:30.257Z,97209.57
2024-03-28T06:39:01.489Z,97203.41
2024-03-28T06:41:34.334Z,97201.59
2024-03-28T06:44:05.500Z,97201.77
2024-03-28T06:46:38.295Z,97195.59
2024-03-28T06:49:11.270Z,97195.44
2024-03-28T06:51:43.918Z,97194.40
2024-03-28T06:54:15.046Z,97191.91
2024-03-28T06:56:49.221Z,97183.94
2024-03-28T06:59:22.313Z,97178.50
2024-03-28T07:01:56.121Z,97176.02
2024-03-28T07:04:29.106Z,97178.25
2024-03-28T07:07:00.368Z,97170.10
2024-03-28T07:09:33.303Z,97167.98
2024-03-28T07:12:07.362Z,97166.55
2024-03-28T07:14:40.237Z,97163.52
2024-03-28T07:17:13.270Z,97162.04
2024-03-28T07:19:46.805Z,97158.36
2024-03-28T07:22:19.906Z,97157.43
2024-03-28T07:24:53.005Z,97153.10
2024-03-28T07:27:26.021Z,97149.14
2024-03-28T07:29:57.157Z,97145.88
2024-03-28T07:32:30.201Z,97149.10
2024-03-28T07:35:01.160Z,97142.47
2024-03-28T07:37:34.044Z,97143.84
2024-03-28T07:40:11.110Z,97142.92
2024-03-28T07:42:43.855Z,97140.92
2024-03-28T07:45:18.271Z,97141.81
2024-03-28T07:47:51.302Z,97134.30
2024-03-28T07:50:22.458Z,97135.89
2024-03-28T07:52:55.309Z,97134.89
2024-03-28T07:55:28.198Z,97132.65
2024-03-28T07:58:00.899Z,97129.00
2024-03-28T08:00:33.848Z,97121.89
2024-03-28T08:03:07.262Z,97123.59
2024-03-28T08:05:40.832Z,97121.94
2024-03-28T08:08:13.576Z,97121.22
2024-03-28T08:10:46.311Z,97118.31
2024-03-28T08:13:19.268Z,97108.33
2024-03-28T08:15:52.120Z,97106.68
2024-03-28T08:18:25.394Z,97101.88
2024-03-28T08:20:58.792Z,97093.02
2024-03-28T08:23:31.824Z,97088.61
2024-03-28T08:26:07.363Z,97089.06
2024-03-28T08:28:44.711Z,97084.09
2024-03-28T08:31:17.577Z,97080.14
2024-03-28T08:33:53.349Z,97078.94
2024-03-28T08:36:26.274Z,97085.15
2024-03-28T08:38:59.743Z,97078.36
2024-03-28T08:41:32.441Z,97083.88
2024-03-28T08:44:05.459Z,97081.11
2024-03-28T08:46:42.268Z,97079.45
2024-03-28T08:49:16.090Z,97080.65
2024-03-28T08:51:49.977Z,97077.84
2024-03-28T08:54:25.458Z,97072.97
2024-03-28T08:56:58.555Z,97070.02
2024-03-28T08:59:31.377Z,97073.23
2024-03-28T09:02:05.935Z,97070.68
2024-03-28T09:04:40.407Z,97066.68
2024-03-28T09:07:13.334Z,97069.45
2024-03-28T09:09:48.799Z,97059.97
2024-03-28T09:12:22.978Z,97058.70
2024-03-28T09:14:59.112Z,97055.14
2024-03-28T09:17:32.349Z,97052.48
2024-03-28T09:20:07.023Z,97049.70
2024-03-28T09:22:40.064Z,97047.23
2024-03-28T09:25:13.945Z,97041.08
2024-03-28T09:27:46.816Z,97037.21
2024-03-28T09:30:22.291Z,97029.43
2024-03-28T09:32:56.281Z,97027.45
2024-03-28T09:35:29.289Z,97027.23
2024-03-28T09:38:03.400Z,97021.61
2024-03-28T09:40:41.734Z,97016.75
2024-03-28T09:43:14.893Z,97004.06
2024-03-28T09:45:49.710Z,97000.30
2024-03-28T09:48:23.042Z,96995.96
2024-03-28T09:50:56.856Z,96992.67
2024-03-28T09:53:31.812Z,96984.79
2024-03-28T09:56:04.897Z,96982.56
2024-03-28T09:58:39.924Z,96975.98
2024-03-28T10:01:12.989Z,96974.66
2024-03-28T10:03:47.989Z,96977.17
2024-03-28T10:06:20.714Z,96963.33
2024-03-28T10:08:54.939Z,96963.53
2024-03-28T10:11:27.868Z,96960.67
2024-03-28T10:14:00.600Z,96961.75
2024-03-28T10:16:33.362Z,96951.98
2024-03-28T10:19:06.447Z,96954.23
2024-03-28T10:21:39.784Z,96951.45
2024-03-28T10:24:20.994Z,96944.23
2024-03-28T10:26:54.688Z,96941.02
2024-03-28T10:29:30.828Z,96938.29
2024-03-28T10:32:10.009Z,96933.36
2024-03-28T10:34:49.769Z,96927.77
2024-03-28T10:37:27.195Z,96923.59
2024-03-28T10:40:02.744Z,96922.36
2024-03-28T10:42:36.731Z,96921.40
2024-03-28T10:45:12.072Z,96913.54
2024-03-28T10:47:45.099Z,96908.31
2024-03-28T10:50:23.747Z,96907.60
2024-03-28T10:52:59.483Z,96903.73
2024-03-28T10:55:37.892Z,96900.51
2024-03-28T10:58:11.833Z,96899.06
2024-03-28T11:00:45.433Z,96895.67
2024-03-28T11:03:19.446Z,96891.56
2024-03-28T11:05:52.858Z,96884.70
2024-03-28T11:08:25.860Z,96882.52
2024-03-28T11:11:01.088Z,96876.55
2024-03-28T11:13:34.084Z,96881.88
2024-03-28T11:16:08.859Z,96879.56
2024-03-28T11:18:43.814Z,96880.89
2024-03-28T11:21:26.814Z,96874.77
2024-03-28T11:23:59.707Z,96872.77
2024-03-28T11:26:33.224Z,96868.09
2024-03-28T11:29:07.129Z,96866.09
2024-03-28T11:31:44.183Z,96860.13
2024-03-28T11:34:29.293Z,96855.67
2024-03-28T11:37:02.139Z,96860.25
2024-03-28T11:39:35.696Z,96850.34
2024-03-28T11:42:32.420Z,96852.64
2024-03-28T11:45:14.504Z,96851.24
2024-03-28T11:47:51.989Z,96851.55
2024-03-28T11:50:27.966Z,96851.92
2024-03-28T11:53:09.588Z,96845.46
2024-03-28T11:55:44.539Z,96846.31
2024-03-28T11:58:22.193Z,96845.54
2024-03-28T12:01:01.686Z,96840.09
2024-03-28T12:03:36.200Z,96836.25
2024-03-28T12:06:09.834Z,96839.21
2024-03-28T12:08:46.204Z,96838.75
2024-03-28T12:11:19.943Z,96836.67
2024-03-28T12:13:54.165Z,96830.30
2024-03-28T12:16:27.200Z,96820.84
2024-03-28T12:19:08.466Z,96814.91
2024-03-28T12:21:42.106Z,96812.31
2024-03-28T12:24:15.782Z,96807.56
2024-03-28T12:26:49.327Z,96810.52
2024-03-28T12:29:29.820Z,96804.64
2024-03-28T12:32:10.144Z,96803.09
2024-03-28T12:34:53.298Z,96798.23
2024-03-28T12:37:30.001Z,96802.73
2024-03-28T12:40:10.686Z,96798.71
2024-03-28T12:42:51.375Z,96800.16
2024-03-28T12:45:25.718Z,96796.47
2024-03-28T12:47:58.824Z,96796.71
2024-03-28T12:50:34.049Z,96797.08
2024-03-28T12:53:08.165Z,96798.21
2024-03-28T12:55:42.246Z,96794.31
2024-03-28T12:58:16.579Z,96796.11
2024-03-28T13:00:49.389Z,96794.40
2024-03-28T13:03:22.932Z,96790.92
2024-03-28T13:05:57.631Z,96795.98
2024-03-28T13:08:30.892Z,96790.20
2024-03-28T13:11:04.786Z,96792.90
2024-03-28T13:13:39.436Z,96791.23
2024-03-28T13:16:12.684Z,96790.61
2024-03-28T13:18:49.390Z,96798.92
2024-03-28T13:21:25.554Z,96797.97
2024-03-28T13:24:00.179Z,96800.20
2024-03-28T13:29:16.668Z,96797.81
2024-03-28T13:31:50.534Z,96798.46
2024-03-28T13:34:24.987Z,96795.31
2024-03-28T13:36:59.385Z,96791.71
2024-03-28T13:39:32.592Z,96791.63
2024-03-28T13:42:06.326Z,96790.08
2024-03-28T13:44:39.427Z,96789.46
2024-03-28T13:47:13.502Z,96791.83
2024-03-28T13:49:46.850Z,96793.12
2024-03-28T13:52:23.968Z,96795.09
2024-03-28T13:54:58.229Z,96797.39
2024-03-28T13:57:32.413Z,96795.69
2024-03-28T14:00:08.573Z,96795.67
2024-03-28T14:02:41.954Z,96791.65
2024-03-28T14:05:15.123Z,96788.30
2024-03-28T14:07:48.479Z,96786.36
2024-03-28T14:10:22.869Z,96787.48
2024-03-28T14:12:56.276Z,96794.84
2024-03-28T14:15:31.233Z,96795.67
2024-03-28T14:18:05.043Z,96802.39
2024-03-28T14:20:41.145Z,96805.64
2024-03-28T14:23:18.231Z,96804.02
2024-03-28T14:25:52.208Z,96808.16
2024-03-28T14:28:25.600Z,96808.33
2024-03-28T14:30:58.736Z,96809.92
2024-03-28T14:33:34.335Z,96807.73
2024-03-28T14:36:09.663Z,96809.73
2024-03-28T14:38:43.530Z,96807.74
2024-03-28T14:41:17.531Z,96808.29
2024-03-28T14:43:50.924Z,96812.85
2024-03-28T14:46:28.489Z,96813.20
2024-03-28T14:49:01.926Z,96813.38
2024-03-28T14:51:34.844Z,96815.12
2024-03-28T14:54:08.472Z,96814.41
2024-03-28T14:56:42.295Z,96811.35
2024-03-28T14:59:15.230Z,96814.58
2024-03-28T15:01:48.076Z,96813.91
2024-03-28T15:04:26.902Z,96815.73
2024-03-28T15:07:03.336Z,96817.55
2024-03-28T15:09:37.013Z,96817.60
2024-03-28T15:12:11.084Z,96818.05
2024-03-28T15:14:44.473Z,96822.92
2024-03-28T15:17:18.455Z,96825.20
2024-03-28T15:19:51.519Z,96818.62
2024-03-28T15:22:24.760Z,96818.93
2024-03-28T15:25:00.830Z,96820.45
2024-03-28T15:27:34.204Z,96816.67
2024-03-28T15:30:08.325Z,96820.86
2024-03-28T15:32:41.281Z,96821.94
2024-03-28T15:35:14.765Z,96822.71
2024-03-28T15:37:48.126Z,96825.73
2024-03-28T15:40:21.794Z,96827.74
2024-03-28T15:42:55.491Z,96828.02
2024-03-28T15:45:28.626Z,96829.16
2024-03-28T15:48:01.772Z,96828.48
2024-03-28T15:50:36.882Z,96832.20
2024-03-28T15:53:09.726Z,96837.80
2024-03-28T15:55:45.403Z,96840.83
2024-03-28T15:58:19.825Z,96837.73
2024-03-28T16:00:52.810Z,96846.46
2024-03-28T16:03:25.975Z,96848.65
2024-03-28T16:05:58.958Z,96843.81
2024-03-28T16:08:32.177Z,96841.91
2024-03-28T16:11:05.140Z,96845.23
2024-03-28T16:13:38.165Z,96850.09
2024-03-28T16:16:11.573Z,96858.16
2024-03-28T16:18:45.228Z,96860.48
2024-03-28T16:21:18.087Z,96860.09
2024-03-28T16:23:51.484Z,96863.20
2024-03-28T16:26:24.619Z,96862.53
2024-03-28T16:29:06.724Z,96862.77
2024-03-28T16:31:43.831Z,96864.14
2024-03-28T16:34:16.854Z,96869.81
2024-03-28T16:36:49.738Z,96876.20
2024-03-28T16:39:24.783Z,96877.95
2024-03-28T16:41:57.767Z,96881.23
2024-03-28T16:44:31.013Z,96886.46
2024-03-28T16:47:09.572Z,96890.34
2024-03-28T16:49:42.651Z,96892.88
2024-03-28T16:52:15.927Z,96898.53
2024-03-28T16:54:49.037Z,96900.52
2024-03-28T16:57:22.104Z,96898.55
2024-03-28T16:59:57.876Z,96904.23
2024-03-28T17:02:31.352Z,96906.02
2024-03-28T17:05:04.347Z,96911.55
2024-03-28T17:07:40.666Z,96910.06
2024-03-28T17:10:14.929Z,96915.39
2024-03-28T17:12:48.024Z,96917.91
2024-03-28T17:15:21.095Z,96919.86
2024-03-28T17:17:54.584Z,96924.44
2024-03-28T17:20:27.518Z,96925.09
2024-03-28T17:23:00.441Z,96923.73
2024-03-28T17:25:34.757Z,96925.73
2024-03-28T17:28:08.518Z,96928.46
2024-03-28T17:30:43.707Z,96929.35
2024-03-28T17:33:17.677Z,96927.90
2024-03-28T17:35:58.697Z,96930.80
2024-03-28T17:38:31.683Z,96933.73
2024-03-28T17:41:04.902Z,96936.02
2024-03-28T17:43:37.908Z,96939.20
2024-03-28T17:46:11.037Z,96939.61
2024-03-28T17:48:43.756Z,96934.35
2024-03-28T17:51:16.597Z,96933.32
2024-03-28T17:53:50.604Z,96935.60
2024-03-28T17:56:23.347Z,96938.83
2024-03-28T17:58:57.219Z,96944.45
2024-03-28T18:01:32.875Z,96949.58
2024-03-28T18:04:10.622Z,96956.98
2024-03-28T18:06:43.568Z,96957.25
2024-03-28T18:09:20.803Z,96955.39
2024-03-28T18:11:53.660Z,96958.02
2024-03-28T18:14:26.977Z,96956.40
2024-03-28T18:17:00.278Z,96956.95
2024-03-28T18:19:33.700Z,96956.52
2024-03-28T18:22:07.095Z,96958.79
2024-03-28T18:24:40.763Z,96964.73
2024-03-28T18:27:13.574Z,96968.48
2024-03-28T18:29:46.548Z,96963.90
2024-03-28T18:32:19.827Z,96963.54
2024-03-28T18:34:53.029Z,96966.55
2024-03-28T18:37:26.150Z,96968.17
2024-03-28T18:39:59.246Z,96969.50
2024-03-28T18:42:32.546Z,96972.41
2024-03-28T18:45:05.948Z,96976.91
2024-03-28T18:47:38.982Z,96973.66
2024-03-28T18:50:13.023Z,96975.88
2024-03-28T18:52:47.215Z,96980.77
2024-03-28T18:55:20.574Z,96984.43
2024-03-28T18:57:53.820Z,96985.16
2024-03-28T19:00:27.547Z,96992.34
2024-03-28T19:03:01.469Z,96995.70
2024-03-28T19:05:39.231Z,96999.44
2024-03-28T19:08:13.282Z,97000.08
2024-03-28T19:10:48.052Z,97002.59
2024-03-28T19:13:22.299Z,97004.36
2024-03-28T19:15:58.060Z,97012.20
2024-03-28T19:18:31.888Z,97014.60
2024-03-28T19:21:05.691Z,97018.70
2024-03-28T19:23:38.970Z,97023.70
2024-03-28T19:26:14.289Z,97028.90
2024-03-28T19:28:48.228Z,97027.23
2024-03-28T19:31:22.994Z,97026.98
2024-03-28T19:33:58.035Z,97026.78
2024-03-28T19:36:35.223Z,97025.45
2024-03-28T19:39:11.652Z,97028.33
2024-03-28T19:41:44.763Z,97031.70
2024-03-28T19:44:17.669Z,97035.98
2024-03-28T19:46:54.939Z,97036.54
2024-03-28T19:49:27.857Z,97040.02
2024-03-28T19:52:01.051Z,97041.11
2024-03-28T19:54:37.889Z,97049.40
2024-03-28T19:57:11.077Z,97048.28
2024-03-28T19:59:43.966Z,97046.84
2024-03-28T20:02:16.867Z,97052.09
2024-03-28T20:04:58.808Z,97051.73
2024-03-28T20:07:32.911Z,97058.02
2024-03-28T20:10:08.003Z,97066.73
2024-03-28T20:12:44.051Z,97066.95
2024-03-28T20:15:16.908Z,97071.15
2024-03-28T20:17:49.898Z,97075.05
2024-03-28T20:20:23.383Z,97075.69
2024-03-28T20:22:56.355Z,97076.29
2024-03-28T20:25:30.229Z,97078.84
2024-03-28T20:28:04.608Z,97084.40
2024-03-28T20:30:38.166Z,97087.85
2024-03-28T20:33:12.036Z,97087.03
2024-03-28T20:35:47.690Z,97089.64
2024-03-28T20:38:20.512Z,97085.66
2024-03-28T20:40:57.326Z,97084.45
2024-03-28T20:43:30.246Z,97080.72
2024-03-28T20:46:07.883Z,97084.04
2024-03-28T20:48:40.727Z,97084.81
2024-03-28T20:51:20.026Z,97086.91
2024-03-28T20:53:53.217Z,97089.83
2024-03-28T20:56:25.966Z,97085.25
2024-03-28T20:58:59.653Z,97088.07
2024-03-28T21:01:33.172Z,97090.64
2024-03-28T21:04:08.897Z,97092.02
2024-03-28T21:07:07.686Z,97092.67
2024-03-28T21:10:07.705Z,97096.77
2024-03-28T21:12:40.824Z,97096.84
2024-03-28T21:15:13.583Z,97097.38
2024-03-28T21:17:46.377Z,97094.55
2024-03-28T21:20:20.041Z,97098.96
2024-03-28T21:22:53.768Z,97094.52
2024-03-28T21:25:26.533Z,97094.80
2024-03-28T21:28:00.899Z,97094.38
2024-03-28T21:30:34.866Z,97099.41
2024-03-28T21:33:08.317Z,97101.11
2024-03-28T21:35:41.710Z,97101.38
2024-03-28T21:38:14.581Z,97097.02
2024-03-28T21:40:57.000Z,97095.66
2024-03-28T21:43:30.331Z,97105.64
2024-03-28T21:46:04.179Z,97105.77
2024-03-28T21:48:39.061Z,97110.41
2024-03-28T21:51:12.075Z,97111.30
2024-03-28T21:53:45.089Z,97112.60
2024-03-28T21:56:20.981Z,97109.77
2024-03-28T21:58:53.663Z,97111.04
2024-03-28T22:01:26.663Z,97113.30
2024-03-28T22:03:59.454Z,97114.40
2024-03-28T22:06:35.345Z,97114.92
2024-03-28T22:09:10.068Z,97120.36
2024-03-28T22:11:43.718Z,97115.61
2024-03-28T22:14:16.647Z,97117.20
2024-03-28T22:16:54.479Z,97119.73
2024-03-28T22:19:33.889Z,97123.58
2024-03-28T22:22:07.178Z,97125.52
2024-03-28T22:24:40.285Z,97127.11
2024-03-28T22:27:15.292Z,97133.11
2024-03-28T22:29:47.982Z,97138.60
2024-03-28T22:32:21.062Z,97134.02
2024-03-28T22:34:55.688Z,97132.53
2024-03-28T22:37:28.823Z,97130.25
2024-03-28T22:40:02.146Z,97131.02
2024-03-28T22:42:37.102Z,97130.61
2024-03-28T22:45:11.834Z,97129.91
2024-03-28T22:47:45.140Z,97128.71
2024-03-28T22:50:18.653Z,97131.13
2024-03-28T22:52:51.562Z,97129.11
2024-03-28T22:55:24.904Z,97131.36
2024-03-28T22:57:57.842Z,97130.23
2024-03-28T23:00:34.650Z,97129.14
2024-03-28T23:03:08.410Z,97127.05
2024-03-28T23:05:41.338Z,97128.84
2024-03-28T23:08:14.711Z,97131.55
2024-03-28T23:10:53.549Z,97135.94
2024-03-28T23:13:26.799Z,97132.96
2024-03-28T23:16:00.059Z,97136.91
2024-03-28T23:18:33.312Z,97131.52
2024-03-28T23:21:06.936Z,97129.39
2024-03-28T23:23:41.416Z,97127.89
2024-03-28T23:26:14.413Z,97131.02
2024-03-28T23:28:48.668Z,97125.16
2024-03-28T23:31:21.378Z,97120.98
2024-03-28T23:33:54.824Z,97126.52
2024-03-28T23:36:28.222Z,97122.66
2024-03-28T23:39:01.642Z,97127.39
2024-03-28T23:41:35.124Z,97131.75
2024-03-28T23:44:08.630Z,97126.98
2024-03-28T23:46:41.395Z,97128.12
2024-03-28T23:49:15.273Z,97124.36
2024-03-28T23:51:48.128Z,97120.59
2024-03-28T23:54:21.887Z,97116.50
2024-03-28T23:56:54.546Z,97114.38
2024-03-28T23:59:27.900Z,97115.03
